createdAt,value
2017-10-01T00:00:56.245Z,24.1
2017-10-01T00:01:58.038Z,24.1
2017-10-01T00:03:00.164Z,24.1
2017-10-01T00:04:02.292Z,24.1
2017-10-01T00:05:04.087Z,24.1
2017-10-01T00:06:06.214Z,24.1
2017-10-01T00:07:08.005Z,24.1
2017-10-01T00:08:09.464Z,24.1
2017-10-01T00:09:11.257Z,24.1
2017-10-01T00:10:13.388Z,24.1
2017-10-01T00:11:15.179Z,24.1
2017-10-01T00:12:16.970Z,24.1
2017-10-01T00:13:18.406Z,24.1
2017-10-01T00:14:19.843Z,24
2017-10-01T00:15:21.965Z,24.1
2017-10-01T00:16:23.767Z,24.1
2017-10-01T00:17:24.869Z,24.2
2017-10-01T00:18:26.328Z,24.1
2017-10-01T00:19:28.453Z,24.1
2017-10-01T00:20:29.912Z,24
2017-10-01T00:21:31.720Z,24
2017-10-01T00:22:33.847Z,24.1
2017-10-01T00:23:35.974Z,24
2017-10-01T00:24:37.428Z,24.1
2017-10-01T00:25:38.862Z,24
2017-10-01T00:26:40.654Z,24
2017-10-01T00:27:42.779Z,24.1
2017-10-01T00:28:44.237Z,24
2017-10-01T00:29:45.679Z,24.1
2017-10-01T00:30:47.470Z,24
2017-10-01T00:31:49.262Z,24
2017-10-01T00:32:50.728Z,24.1
2017-10-01T00:33:52.854Z,24.1
2017-10-01T00:34:54.627Z,24
2017-10-01T00:35:56.752Z,24
2017-10-01T00:36:58.541Z,24.1
2017-10-01T00:38:00.667Z,24.1
2017-10-01T00:39:01.771Z,24
2017-10-01T00:40:03.900Z,24.1
2017-10-01T00:41:05.699Z,24
2017-10-01T00:42:07.840Z,24
2017-10-01T00:43:09.605Z,24
2017-10-01T00:44:11.374Z,24
2017-10-01T00:45:13.168Z,24.1
2017-10-01T00:46:14.960Z,24
2017-10-01T00:47:16.395Z,24.1
2017-10-01T00:48:18.520Z,24
2017-10-01T00:49:20.646Z,24
2017-10-01T00:50:22.453Z,24
2017-10-01T00:51:24.573Z,24.1
2017-10-01T00:52:26.699Z,24
2017-10-01T00:53:28.826Z,24
2017-10-01T00:54:30.282Z,24
2017-10-01T00:55:32.409Z,24
2017-10-01T00:56:34.546Z,24
2017-10-01T00:57:36.328Z,24
2017-10-01T00:58:38.096Z,24
2017-10-01T00:59:39.890Z,24.1
2017-10-01T01:00:41.685Z,23.9
2017-10-01T01:01:43.814Z,24
2017-10-01T01:02:45.274Z,24
2017-10-01T01:03:46.733Z,23.9
2017-10-01T01:04:48.503Z,24
2017-10-01T01:05:49.937Z,24
2017-10-01T01:06:51.730Z,24
2017-10-01T01:07:53.516Z,24
2017-10-01T01:08:54.957Z,23.9
2017-10-01T01:09:56.746Z,24
2017-10-01T01:10:58.536Z,23.9
2017-10-01T01:11:59.993Z,24
2017-10-01T01:13:01.451Z,24
2017-10-01T01:14:03.581Z,23.9
2017-10-01T01:15:05.369Z,23.9
2017-10-01T01:16:07.162Z,23.9
2017-10-01T01:17:09.288Z,23.9
2017-10-01T01:18:11.060Z,23.9
2017-10-01T01:19:12.516Z,23.9
2017-10-01T01:20:14.660Z,23.9
2017-10-01T01:21:16.770Z,24
2017-10-01T01:22:18.898Z,23.9
2017-10-01T01:23:21.026Z,23.9
2017-10-01T01:24:22.818Z,23.9
2017-10-01T01:25:24.268Z,23.9
2017-10-01T01:26:25.723Z,23.9
2017-10-01T01:27:27.850Z,24
2017-10-01T01:28:29.638Z,24
2017-10-01T01:29:31.406Z,24
2017-10-01T01:30:32.841Z,23.9
2017-10-01T01:31:33.960Z,23.9
2017-10-01T01:32:35.738Z,24
2017-10-01T01:33:37.877Z,23.9
2017-10-01T01:34:40.015Z,24
2017-10-01T01:35:41.807Z,23.9
2017-10-01T01:36:43.619Z,23.9
2017-10-01T01:37:45.079Z,23.9
2017-10-01T01:38:47.206Z,23.9
2017-10-01T01:39:49.335Z,23.9
2017-10-01T01:40:51.463Z,23.9
2017-10-01T01:41:53.254Z,23.9
2017-10-01T01:42:55.026Z,23.9
2017-10-01T01:43:56.828Z,23.9
2017-10-01T01:44:58.288Z,23.9
2017-10-01T01:46:00.412Z,23.9
2017-10-01T01:47:02.207Z,23.9
2017-10-01T01:48:03.977Z,23.9
2017-10-01T01:49:06.107Z,23.9
2017-10-01T01:50:08.232Z,23.9
2017-10-01T01:51:10.005Z,23.9
2017-10-01T01:52:11.440Z,23.9
2017-10-01T01:53:12.885Z,23.9
2017-10-01T01:54:14.333Z,23.9
2017-10-01T01:55:15.790Z,23.9
2017-10-01T01:56:17.249Z,23.9
2017-10-01T01:57:19.044Z,23.9
2017-10-01T01:58:20.498Z,23.9
2017-10-01T01:59:21.941Z,23.9
2017-10-01T02:00:24.065Z,23.9
2017-10-01T02:01:25.854Z,23.9
2017-10-01T02:02:27.645Z,23.9
2017-10-01T02:03:29.416Z,23.9
2017-10-01T02:04:30.905Z,23.8
2017-10-01T02:05:33.033Z,23.9
2017-10-01T02:06:34.827Z,23.9
2017-10-01T02:07:36.955Z,23.8
2017-10-01T02:08:38.388Z,23.8
2017-10-01T02:09:40.217Z,23.8
2017-10-01T02:10:41.649Z,23.8
2017-10-01T02:11:43.439Z,23.8
2017-10-01T02:12:45.585Z,23.8
2017-10-01T02:13:47.036Z,23.9
2017-10-01T02:14:48.827Z,23.9
2017-10-01T02:15:50.298Z,23.9
2017-10-01T02:16:52.091Z,23.9
2017-10-01T02:17:53.528Z,23.9
2017-10-01T02:18:55.657Z,23.8
2017-10-01T02:19:57.113Z,23.9
2017-10-01T02:20:58.213Z,23.9
2017-10-01T02:21:59.672Z,23.8
2017-10-01T02:23:01.106Z,23.8
2017-10-01T02:24:02.897Z,23.9
2017-10-01T02:25:04.335Z,23.8
2017-10-01T02:26:06.127Z,23.8
2017-10-01T02:27:08.255Z,23.8
2017-10-01T02:28:10.045Z,23.9
2017-10-01T02:29:11.837Z,23.8
2017-10-01T02:30:13.625Z,23.8
2017-10-01T02:31:15.415Z,23.8
2017-10-01T02:32:17.205Z,23.8
2017-10-01T02:33:19.329Z,23.8
2017-10-01T02:34:20.785Z,23.8
2017-10-01T02:35:22.219Z,23.8
2017-10-01T02:36:24.013Z,23.8
2017-10-01T02:37:25.807Z,23.8
2017-10-01T02:38:27.601Z,23.8
2017-10-01T02:39:29.726Z,23.8
2017-10-01T02:40:31.184Z,23.8
2017-10-01T02:41:33.329Z,23.8
2017-10-01T02:42:35.194Z,23.8
2017-10-01T02:43:36.988Z,23.8
2017-10-01T02:44:38.429Z,23.8
2017-10-01T02:45:40.222Z,23.8
2017-10-01T02:46:42.013Z,23.8
2017-10-01T02:47:43.806Z,23.8
2017-10-01T02:48:45.936Z,23.8
2017-10-01T02:49:47.367Z,23.8
2017-10-01T02:50:49.160Z,23.8
2017-10-01T02:51:50.597Z,23.8
2017-10-01T02:52:52.055Z,23.8
2017-10-01T02:53:53.847Z,23.8
2017-10-01T02:54:55.639Z,23.8
2017-10-01T02:55:57.075Z,23.8
2017-10-01T02:56:58.849Z,23.8
2017-10-01T02:58:00.642Z,23.8
2017-10-01T02:59:02.768Z,23.7
2017-10-01T03:00:04.546Z,23.8
2017-10-01T03:01:06.309Z,23.8
2017-10-01T03:02:07.742Z,23.7
2017-10-01T03:03:09.551Z,23.8
2017-10-01T03:04:11.326Z,23.8
2017-10-01T03:05:13.454Z,23.8
2017-10-01T03:06:15.246Z,23.8
2017-10-01T03:07:17.371Z,23.8
2017-10-01T03:08:19.163Z,23.8
2017-10-01T03:09:20.957Z,23.8
2017-10-01T03:10:22.746Z,23.8
2017-10-01T03:11:24.874Z,23.7
2017-10-01T03:12:26.714Z,23.7
2017-10-01T03:13:28.170Z,23.8
2017-10-01T03:14:29.294Z,23.8
2017-10-01T03:15:31.086Z,23.8
2017-10-01T03:16:32.188Z,23.8
2017-10-01T03:17:33.978Z,23.7
2017-10-01T03:18:35.771Z,23.8
2017-10-01T03:19:37.562Z,23.7
2017-10-01T03:20:38.994Z,23.7
2017-10-01T03:21:41.124Z,23.8
2017-10-01T03:22:42.911Z,23.7
2017-10-01T03:23:43.681Z,23.7
2017-10-01T03:24:45.145Z,23.8
2017-10-01T03:25:46.938Z,23.8
2017-10-01T03:26:48.374Z,23.8
2017-10-01T03:27:50.146Z,23.8
2017-10-01T03:28:52.273Z,23.8
2017-10-01T03:29:53.715Z,23.8
2017-10-01T03:30:55.840Z,23.8
2017-10-01T03:31:57.283Z,23.8
2017-10-01T03:32:59.409Z,23.8
2017-10-01T03:34:01.176Z,23.7
2017-10-01T03:35:02.946Z,23.8
2017-10-01T03:36:04.741Z,23.7
2017-10-01T03:37:06.193Z,23.7
2017-10-01T03:38:07.651Z,23.8
2017-10-01T03:39:09.456Z,23.7
2017-10-01T03:40:10.911Z,23.8
2017-10-01T03:41:12.350Z,23.8
2017-10-01T03:42:14.475Z,23.7
2017-10-01T03:43:15.578Z,23.8
2017-10-01T03:44:17.369Z,23.8
2017-10-01T03:45:18.847Z,23.7
2017-10-01T03:46:20.974Z,23.7
2017-10-01T03:47:23.104Z,23.7
2017-10-01T03:48:25.233Z,23.8
2017-10-01T03:49:27.004Z,23.7
2017-10-01T03:50:28.797Z,23.7
2017-10-01T03:51:30.590Z,23.8
2017-10-01T03:52:32.380Z,23.7
2017-10-01T03:53:34.173Z,23.7
2017-10-01T03:54:35.964Z,23.6
2017-10-01T03:55:38.088Z,23.7
2017-10-01T03:56:39.546Z,23.7
2017-10-01T03:57:40.979Z,23.7
2017-10-01T03:58:42.079Z,23.7
2017-10-01T03:59:43.204Z,23.7
2017-10-01T04:00:45.337Z,23.7
2017-10-01T04:01:46.767Z,23.7
2017-10-01T04:02:48.227Z,23.7
2017-10-01T04:03:50.019Z,23.7
2017-10-01T04:04:51.119Z,23.7
2017-10-01T04:05:52.917Z,23.7
2017-10-01T04:06:54.041Z,23.7
2017-10-01T04:07:55.833Z,23.7
2017-10-01T04:08:57.622Z,23.7
2017-10-01T04:09:59.749Z,23.6
2017-10-01T04:11:01.543Z,23.6
2017-10-01T04:12:03.345Z,23.7
2017-10-01T04:13:04.800Z,23.7
2017-10-01T04:14:06.260Z,23.6
2017-10-01T04:15:08.055Z,23.7
2017-10-01T04:16:09.490Z,23.6
2017-10-01T04:17:10.591Z,23.7
2017-10-01T04:18:11.691Z,23.7
2017-10-01T04:19:13.816Z,23.6
2017-10-01T04:20:14.938Z,23.7
2017-10-01T04:21:16.374Z,23.6
2017-10-01T04:22:17.829Z,23.7
2017-10-01T04:23:18.933Z,23.7
2017-10-01T04:24:20.383Z,23.7
2017-10-01T04:25:22.180Z,23.7
2017-10-01T04:26:24.304Z,23.6
2017-10-01T04:27:26.075Z,23.6
2017-10-01T04:28:27.546Z,23.7
2017-10-01T04:29:29.334Z,23.7
2017-10-01T04:30:31.125Z,23.7
2017-10-01T04:31:32.917Z,23.6
2017-10-01T04:32:34.355Z,23.7
2017-10-01T04:33:36.146Z,23.7
2017-10-01T04:34:37.944Z,23.6
2017-10-01T04:35:39.732Z,23.6
2017-10-01T04:36:41.524Z,23.7
2017-10-01T04:37:43.685Z,23.7
2017-10-01T04:38:45.455Z,23.7
2017-10-01T04:39:47.577Z,23.7
2017-10-01T04:40:49.705Z,23.6
2017-10-01T04:41:51.476Z,23.6
2017-10-01T04:42:52.912Z,23.6
2017-10-01T04:43:55.035Z,23.6
2017-10-01T04:44:56.486Z,23.7
2017-10-01T04:45:58.276Z,23.7
2017-10-01T04:47:00.069Z,23.7
2017-10-01T04:48:02.197Z,23.7
2017-10-01T04:49:04.323Z,23.6
2017-10-01T04:50:06.108Z,23.6
2017-10-01T04:51:07.207Z,23.6
2017-10-01T04:52:08.662Z,23.6
2017-10-01T04:53:10.787Z,23.6
2017-10-01T04:54:12.557Z,23.7
2017-10-01T04:55:13.705Z,23.7
2017-10-01T04:56:14.806Z,23.6
2017-10-01T04:57:16.930Z,23.6
2017-10-01T04:58:18.366Z,23.6
2017-10-01T04:59:20.492Z,23.6
2017-10-01T05:00:22.618Z,23.6
2017-10-01T05:01:24.745Z,23.7
2017-10-01T05:02:26.200Z,23.6
2017-10-01T05:03:27.658Z,23.7
2017-10-01T05:04:29.448Z,23.6
2017-10-01T05:05:31.574Z,23.6
2017-10-01T05:06:33.033Z,23.6
2017-10-01T05:07:34.834Z,23.6
2017-10-01T05:08:35.940Z,23.6
2017-10-01T05:09:37.405Z,23.6
2017-10-01T05:10:38.528Z,23.6
2017-10-01T05:11:39.647Z,23.6
2017-10-01T05:12:41.441Z,23.6
2017-10-01T05:13:43.232Z,23.6
2017-10-01T05:14:45.028Z,23.6
2017-10-01T05:15:46.821Z,23.6
2017-10-01T05:16:48.613Z,23.6
2017-10-01T05:17:50.049Z,23.6
2017-10-01T05:18:51.171Z,23.6
2017-10-01T05:19:52.630Z,23.6
2017-10-01T05:20:54.433Z,23.6
2017-10-01T05:21:56.225Z,23.6
2017-10-01T05:22:58.021Z,23.6
2017-10-01T05:24:00.147Z,23.6
2017-10-01T05:25:02.278Z,23.6
2017-10-01T05:26:04.071Z,23.6
2017-10-01T05:27:05.862Z,23.6
2017-10-01T05:28:07.992Z,23.6
2017-10-01T05:29:09.785Z,23.6
2017-10-01T05:30:11.559Z,23.6
2017-10-01T05:31:13.349Z,23.6
2017-10-01T05:32:14.784Z,23.6
2017-10-01T05:33:16.918Z,23.6
2017-10-01T05:34:18.711Z,23.6
2017-10-01T05:35:20.534Z,23.6
2017-10-01T05:36:22.322Z,23.6
2017-10-01T05:37:23.760Z,23.6
2017-10-01T05:38:25.534Z,23.6
2017-10-01T05:39:27.304Z,23.6
2017-10-01T05:40:29.431Z,23.6
2017-10-01T05:41:31.225Z,23.7
2017-10-01T05:42:33.015Z,23.7
2017-10-01T05:43:34.810Z,23.6
2017-10-01T05:44:36.600Z,23.6
2017-10-01T05:45:38.783Z,23.6
2017-10-01T05:46:40.237Z,23.6
2017-10-01T05:47:42.011Z,23.6
2017-10-01T05:48:43.801Z,23.6
2017-10-01T05:49:45.935Z,23.6
2017-10-01T05:50:47.366Z,23.6
2017-10-01T05:51:48.833Z,23.6
2017-10-01T05:52:50.296Z,23.6
2017-10-01T05:53:52.084Z,23.6
2017-10-01T05:54:54.214Z,23.6
2017-10-01T05:55:56.394Z,23.6
2017-10-01T05:56:58.518Z,23.6
2017-10-01T05:58:00.650Z,23.6
2017-10-01T05:59:02.106Z,23.6
2017-10-01T06:00:03.876Z,23.6
2017-10-01T06:01:06.003Z,23.6
2017-10-01T06:02:07.471Z,23.6
2017-10-01T06:03:09.240Z,23.6
2017-10-01T06:04:10.712Z,23.6
2017-10-01T06:05:12.136Z,23.6
2017-10-01T06:06:13.928Z,23.6
2017-10-01T06:07:15.703Z,23.6
2017-10-01T06:08:16.808Z,23.7
2017-10-01T06:09:17.912Z,23.6
2017-10-01T06:10:19.686Z,23.6
2017-10-01T06:11:21.482Z,23.6
2017-10-01T06:12:22.922Z,23.7
2017-10-01T06:13:24.357Z,23.6
2017-10-01T06:14:25.456Z,23.6
2017-10-01T06:15:27.249Z,23.6
2017-10-01T06:16:29.378Z,23.7
2017-10-01T06:17:30.815Z,23.6
2017-10-01T06:18:32.608Z,23.7
2017-10-01T06:19:34.065Z,23.6
2017-10-01T06:20:35.503Z,23.6
2017-10-01T06:21:37.630Z,23.6
2017-10-01T06:22:39.427Z,23.7
2017-10-01T06:23:41.218Z,23.6
2017-10-01T06:24:42.678Z,23.6
2017-10-01T06:25:44.803Z,23.6
2017-10-01T06:26:46.932Z,23.6
2017-10-01T06:27:48.730Z,23.6
2017-10-01T06:28:50.522Z,23.6
2017-10-01T06:29:52.318Z,23.6
2017-10-01T06:30:53.775Z,23.7
2017-10-01T06:31:55.212Z,23.6
2017-10-01T06:32:57.339Z,23.6
2017-10-01T06:33:58.770Z,23.6
2017-10-01T06:35:00.903Z,23.6
2017-10-01T06:36:02.337Z,23.7
2017-10-01T06:37:04.128Z,23.6
2017-10-01T06:38:06.256Z,23.6
2017-10-01T06:39:08.059Z,23.6
2017-10-01T06:40:09.519Z,23.6
2017-10-01T06:41:10.627Z,23.7
2017-10-01T06:42:12.423Z,23.6
2017-10-01T06:43:14.212Z,23.7
2017-10-01T06:44:16.007Z,23.7
2017-10-01T06:45:17.443Z,23.7
2017-10-01T06:46:18.951Z,23.6
2017-10-01T06:47:20.054Z,23.6
2017-10-01T06:48:21.514Z,23.6
2017-10-01T06:49:22.971Z,23.6
2017-10-01T06:50:24.763Z,23.6
2017-10-01T06:51:26.898Z,23.7
2017-10-01T06:52:28.690Z,23.7
2017-10-01T06:53:30.129Z,23.6
2017-10-01T06:54:31.565Z,23.7
2017-10-01T06:55:33.022Z,23.7
2017-10-01T06:56:34.455Z,23.6
2017-10-01T06:57:36.247Z,23.7
2017-10-01T06:58:38.040Z,23.6
2017-10-01T06:59:40.171Z,23.7
2017-10-01T07:00:41.610Z,23.7
2017-10-01T07:01:43.046Z,23.7
2017-10-01T07:02:45.172Z,23.7
2017-10-01T07:03:46.966Z,23.7
2017-10-01T07:04:48.735Z,23.7
2017-10-01T07:05:50.508Z,23.7
2017-10-01T07:06:52.299Z,23.7
2017-10-01T07:07:54.092Z,23.7
2017-10-01T07:08:56.219Z,23.7
2017-10-01T07:09:58.028Z,23.7
2017-10-01T07:10:59.783Z,23.7
2017-10-01T07:12:01.577Z,23.7
2017-10-01T07:13:03.370Z,23.7
2017-10-01T07:14:05.143Z,23.8
2017-10-01T07:15:06.601Z,23.8
2017-10-01T07:16:08.394Z,23.8
2017-10-01T07:17:10.166Z,23.7
2017-10-01T07:18:12.292Z,23.7
2017-10-01T07:19:13.748Z,23.8
2017-10-01T07:20:15.544Z,23.8
2017-10-01T07:21:17.313Z,23.7
2017-10-01T07:22:18.439Z,23.8
2017-10-01T07:23:20.563Z,23.8
2017-10-01T07:24:22.355Z,23.7
2017-10-01T07:25:23.812Z,23.8
2017-10-01T07:26:25.274Z,23.8
2017-10-01T07:27:26.732Z,23.7
2017-10-01T07:28:27.837Z,23.8
2017-10-01T07:29:28.935Z,23.8
2017-10-01T07:30:30.734Z,23.8
2017-10-01T07:31:32.859Z,23.8
2017-10-01T07:32:34.653Z,23.7
2017-10-01T07:33:36.422Z,23.8
2017-10-01T07:34:38.218Z,23.8
2017-10-01T07:35:40.016Z,23.8
2017-10-01T07:36:41.455Z,23.7
2017-10-01T07:37:43.259Z,23.7
2017-10-01T07:38:45.371Z,23.8
2017-10-01T07:39:47.500Z,23.7
2017-10-01T07:40:48.934Z,23.8
2017-10-01T07:41:50.706Z,23.8
2017-10-01T07:42:52.144Z,23.8
2017-10-01T07:43:53.934Z,23.8
2017-10-01T07:44:55.708Z,23.8
2017-10-01T07:45:57.500Z,23.8
2017-10-01T07:46:58.603Z,23.8
2017-10-01T07:47:59.731Z,23.8
2017-10-01T07:49:01.528Z,23.8
2017-10-01T07:50:03.321Z,23.8
2017-10-01T07:51:05.451Z,23.8
2017-10-01T07:52:06.888Z,23.8
2017-10-01T07:53:08.662Z,23.8
2017-10-01T07:54:10.119Z,23.8
2017-10-01T07:55:12.245Z,23.8
2017-10-01T07:56:14.380Z,23.8
2017-10-01T07:57:16.507Z,23.8
2017-10-01T07:58:17.942Z,23.9
2017-10-01T07:59:19.716Z,23.9
2017-10-01T08:00:21.151Z,23.8
2017-10-01T08:01:22.253Z,23.8
2017-10-01T08:02:24.023Z,23.8
2017-10-01T08:03:24.798Z,23.8
2017-10-01T08:04:26.570Z,23.9
2017-10-01T08:05:28.007Z,23.8
2017-10-01T08:06:29.800Z,23.9
2017-10-01T08:07:31.595Z,23.9
2017-10-01T08:08:33.390Z,23.8
2017-10-01T08:09:35.163Z,23.9
2017-10-01T08:10:36.286Z,23.9
2017-10-01T08:11:38.057Z,24
2017-10-01T08:12:40.186Z,23.9
2017-10-01T08:13:41.621Z,23.9
2017-10-01T08:14:43.391Z,23.9
2017-10-01T08:15:45.161Z,23.9
2017-10-01T08:16:46.956Z,23.9
2017-10-01T08:17:48.393Z,23.9
2017-10-01T08:18:50.521Z,23.9
2017-10-01T08:19:51.621Z,23.9
2017-10-01T08:20:52.728Z,23.9
2017-10-01T08:21:54.577Z,23.9
2017-10-01T08:22:56.367Z,23.9
2017-10-01T08:23:58.137Z,24
2017-10-01T08:25:00.266Z,23.9
2017-10-01T08:26:02.035Z,23.9
2017-10-01T08:27:03.826Z,23.9
2017-10-01T08:28:05.622Z,23.9
2017-10-01T08:29:07.419Z,23.9
2017-10-01T08:30:09.547Z,23.9
2017-10-01T08:31:11.341Z,23.9
2017-10-01T08:32:13.138Z,23.9
2017-10-01T08:33:14.592Z,23.9
2017-10-01T08:34:16.385Z,23.9
2017-10-01T08:35:18.520Z,23.9
2017-10-01T08:36:19.285Z,24
2017-10-01T08:37:21.078Z,23.9
2017-10-01T08:38:22.542Z,23.9
2017-10-01T08:39:23.979Z,24
2017-10-01T08:40:25.769Z,24
2017-10-01T08:41:27.548Z,24
2017-10-01T08:42:29.343Z,24
2017-10-01T08:43:31.471Z,24
2017-10-01T08:44:33.261Z,23.9
2017-10-01T08:45:35.057Z,24.1
2017-10-01T08:46:36.851Z,24
2017-10-01T08:47:38.307Z,24
2017-10-01T08:48:39.409Z,24
2017-10-01T08:49:41.210Z,24
2017-10-01T08:50:42.670Z,24.1
2017-10-01T08:51:44.109Z,24.1
2017-10-01T08:52:45.544Z,24.1
2017-10-01T08:53:47.320Z,24.1
2017-10-01T08:54:49.096Z,24.1
2017-10-01T08:55:50.891Z,24
2017-10-01T08:56:53.016Z,24.1
2017-10-01T08:57:54.814Z,24
2017-10-01T08:58:56.607Z,24
2017-10-01T08:59:58.404Z,24.1
2017-10-01T09:00:59.863Z,24.1
2017-10-01T09:02:01.307Z,24
2017-10-01T09:03:03.101Z,24.1
2017-10-01T09:04:04.564Z,24.1
2017-10-01T09:05:06.690Z,24.1
2017-10-01T09:06:08.485Z,24.1
2017-10-01T09:07:09.590Z,24.1
2017-10-01T09:08:11.721Z,24
2017-10-01T09:09:13.159Z,24.1
2017-10-01T09:10:14.598Z,24.1
2017-10-01T09:11:15.701Z,24.2
2017-10-01T09:12:17.157Z,24.2
2017-10-01T09:13:18.590Z,24
2017-10-01T09:14:20.721Z,24.1
2017-10-01T09:15:22.517Z,24.1
2017-10-01T09:16:24.645Z,24
2017-10-01T09:17:26.080Z,24
2017-10-01T09:18:27.871Z,24.1
2017-10-01T09:19:29.335Z,24.1
2017-10-01T09:20:30.444Z,24.1
2017-10-01T09:21:32.241Z,24.2
2017-10-01T09:22:33.703Z,24.1
2017-10-01T09:23:35.833Z,24.2
2017-10-01T09:24:37.610Z,24.2
2017-10-01T09:25:39.386Z,24.1
2017-10-01T09:26:40.509Z,24.2
2017-10-01T09:27:41.945Z,24.1
2017-10-01T09:28:43.054Z,24.2
2017-10-01T09:29:44.488Z,24.1
2017-10-01T09:30:46.619Z,24.1
2017-10-01T09:31:48.057Z,24.2
2017-10-01T09:32:50.187Z,24.1
2017-10-01T09:33:51.983Z,24.1
2017-10-01T09:34:53.800Z,24.1
2017-10-01T09:35:55.225Z,24.1
2017-10-01T09:36:57.023Z,24.1
2017-10-01T09:37:58.792Z,24.1
2017-10-01T09:39:00.920Z,24.2
2017-10-01T09:40:02.738Z,24.2
2017-10-01T09:41:04.518Z,24.1
2017-10-01T09:42:06.312Z,24.1
2017-10-01T09:43:07.543Z,24.2
2017-10-01T09:44:09.335Z,24.1
2017-10-01T09:45:10.771Z,24.2
2017-10-01T09:46:12.903Z,24.1
2017-10-01T09:47:14.695Z,24.2
2017-10-01T09:48:16.493Z,24.2
2017-10-01T09:49:17.604Z,24.2
2017-10-01T09:50:19.398Z,24.2
2017-10-01T09:51:21.186Z,24.2
2017-10-01T09:52:22.978Z,24.3
2017-10-01T09:53:24.437Z,24.2
2017-10-01T09:54:26.232Z,24.3
2017-10-01T09:55:28.028Z,24.3
2017-10-01T09:56:30.158Z,24.2
2017-10-01T09:57:32.048Z,24.2
2017-10-01T09:58:33.822Z,24.2
2017-10-01T09:59:35.264Z,24.3
2017-10-01T10:00:37.033Z,24.2
2017-10-01T10:01:38.475Z,24.3
2017-10-01T10:02:39.985Z,24.2
2017-10-01T10:03:41.778Z,24.2
2017-10-01T10:04:42.885Z,24.2
2017-10-01T10:05:43.993Z,24.2
2017-10-01T10:06:45.788Z,24.2
2017-10-01T10:07:47.561Z,24.2
2017-10-01T10:08:49.362Z,24.3
2017-10-01T10:09:51.153Z,24.2
2017-10-01T10:10:52.949Z,24.2
2017-10-01T10:11:54.389Z,24.2
2017-10-01T10:12:55.491Z,24.3
2017-10-01T10:13:56.949Z,24.3
2017-10-01T10:14:58.748Z,24.3
2017-10-01T10:16:00.186Z,24.3
2017-10-01T10:17:01.625Z,24.2
2017-10-01T10:18:03.429Z,24.3
2017-10-01T10:19:05.544Z,24.2
2017-10-01T10:20:07.675Z,24.2
2017-10-01T10:21:09.470Z,24.3
2017-10-01T10:22:10.253Z,24.3
2017-10-01T10:23:11.804Z,24.2
2017-10-01T10:24:13.263Z,24.2
2017-10-01T10:25:14.700Z,24.2
2017-10-01T10:26:16.827Z,24.2
2017-10-01T10:27:17.928Z,24.2
2017-10-01T10:28:19.727Z,24.2
2017-10-01T10:29:21.853Z,24.2
2017-10-01T10:30:23.654Z,24.2
2017-10-01T10:31:25.091Z,24.1
2017-10-01T10:32:26.548Z,24.2
2017-10-01T10:33:28.341Z,24.1
2017-10-01T10:34:29.805Z,24.2
2017-10-01T10:35:31.933Z,24.1
2017-10-01T10:36:33.412Z,24.2
2017-10-01T10:37:35.527Z,24.2
2017-10-01T10:38:36.992Z,24.1
2017-10-01T10:39:38.430Z,24.2
2017-10-01T10:40:40.225Z,24.1
2017-10-01T10:41:42.353Z,24.1
2017-10-01T10:42:43.457Z,24.1
2017-10-01T10:43:44.916Z,24.1
2017-10-01T10:44:46.354Z,24.1
2017-10-01T10:45:48.129Z,24.2
2017-10-01T10:46:49.922Z,24.1
2017-10-01T10:47:51.360Z,24.1
2017-10-01T10:48:52.493Z,24.1
2017-10-01T10:49:54.294Z,24.1
2017-10-01T10:50:56.085Z,24.1
2017-10-01T10:51:57.519Z,24.1
2017-10-01T10:52:58.980Z,24.1
2017-10-01T10:54:01.105Z,24.2
2017-10-01T10:55:02.564Z,24.1
2017-10-01T10:56:04.000Z,24.1
2017-10-01T10:57:05.127Z,24.1
2017-10-01T10:58:06.225Z,24.1
2017-10-01T10:59:07.662Z,24
2017-10-01T11:00:09.106Z,24.2
2017-10-01T11:01:10.877Z,24.2
2017-10-01T11:02:12.671Z,24
2017-10-01T11:03:14.467Z,24
2017-10-01T11:04:16.594Z,24.1
2017-10-01T11:05:18.724Z,24.1
2017-10-01T11:06:20.518Z,24.3
2017-10-01T11:07:22.646Z,24.1
2017-10-01T11:08:23.744Z,24.1
2017-10-01T11:09:25.873Z,24.1
2017-10-01T11:10:27.645Z,24.1
2017-10-01T11:11:29.439Z,24.1
2017-10-01T11:12:31.236Z,24.2
2017-10-01T11:13:32.441Z,24
2017-10-01T11:14:34.235Z,24.1
2017-10-01T11:15:36.362Z,24.2
2017-10-01T11:16:37.800Z,24.2
2017-10-01T11:17:39.595Z,24
2017-10-01T11:18:41.068Z,24.1
2017-10-01T11:19:42.497Z,24.1
2017-10-01T11:20:43.597Z,24.1
2017-10-01T11:21:45.055Z,24.1
2017-10-01T11:22:46.849Z,24.1
2017-10-01T11:23:48.646Z,24.1
2017-10-01T11:24:50.109Z,24.2
2017-10-01T11:25:51.559Z,24.1
2017-10-01T11:26:53.689Z,24.1
2017-10-01T11:27:55.130Z,24.1
2017-10-01T11:28:57.257Z,24.2
2017-10-01T11:29:59.053Z,24.1
2017-10-01T11:31:00.847Z,24.1
2017-10-01T11:32:02.975Z,24.1
2017-10-01T11:33:04.776Z,24.1
2017-10-01T11:34:06.569Z,24.1
2017-10-01T11:35:08.007Z,24.1
2017-10-01T11:36:09.805Z,24.1
2017-10-01T11:37:11.595Z,24.2
2017-10-01T11:38:13.397Z,24.3
2017-10-01T11:39:14.836Z,24.2
2017-10-01T11:40:16.967Z,24.2
2017-10-01T11:41:18.070Z,24.1
2017-10-01T11:42:19.844Z,24.2
2017-10-01T11:43:21.968Z,24.2
2017-10-01T11:44:23.762Z,24.2
2017-10-01T11:45:25.562Z,24.2
2017-10-01T11:46:27.355Z,24.3
2017-10-01T11:47:28.474Z,24.3
2017-10-01T11:48:30.269Z,24.3
2017-10-01T11:49:31.704Z,24.3
2017-10-01T11:50:33.834Z,24.3
2017-10-01T11:51:35.626Z,24.3
2017-10-01T11:52:37.402Z,24.3
2017-10-01T11:53:39.196Z,24.3
2017-10-01T11:54:40.658Z,24.2
2017-10-01T11:55:42.097Z,24.3
2017-10-01T11:56:43.555Z,24.2
2017-10-01T11:57:45.014Z,24.3
2017-10-01T11:58:46.474Z,24.3
2017-10-01T11:59:48.247Z,24.3
2017-10-01T12:00:50.038Z,24.2
2017-10-01T12:01:51.809Z,24.3
2017-10-01T12:02:53.582Z,24.2
2017-10-01T12:03:55.362Z,24.3
2017-10-01T12:04:56.825Z,24.3
2017-10-01T12:05:58.624Z,24.2
2017-10-01T12:07:00.755Z,24.3
2017-10-01T12:08:02.882Z,24.3
2017-10-01T12:09:05.013Z,24.2
2017-10-01T12:10:06.462Z,24.3
2017-10-01T12:11:08.258Z,24.3
2017-10-01T12:12:10.388Z,24.3
2017-10-01T12:13:12.521Z,24.3
2017-10-01T12:14:14.653Z,24.2
2017-10-01T12:15:16.114Z,24.3
2017-10-01T12:16:18.244Z,24.3
2017-10-01T12:17:19.705Z,24.3
2017-10-01T12:18:20.808Z,24.3
2017-10-01T12:19:21.946Z,24.3
2017-10-01T12:20:23.744Z,24.3
2017-10-01T12:21:25.872Z,24.3
2017-10-01T12:22:28.003Z,24.3
2017-10-01T12:23:30.136Z,24.3
2017-10-01T12:24:31.576Z,24.2
2017-10-01T12:25:33.032Z,24.2
2017-10-01T12:26:34.808Z,24.3
2017-10-01T12:27:36.244Z,24.3
2017-10-01T12:28:37.705Z,24.2
2017-10-01T12:29:39.171Z,24.2
2017-10-01T12:30:41.300Z,24.3
2017-10-01T12:31:42.737Z,24.2
2017-10-01T12:32:44.868Z,24.2
2017-10-01T12:33:46.995Z,24.2
2017-10-01T12:34:49.122Z,24.4
2017-10-01T12:35:51.251Z,24.3
2017-10-01T12:36:52.688Z,24.3
2017-10-01T12:37:54.486Z,24.3
2017-10-01T12:38:55.586Z,24.3
2017-10-01T12:39:57.082Z,24.3
2017-10-01T12:40:59.212Z,24.4
2017-10-01T12:42:00.979Z,24.3
2017-10-01T12:43:02.442Z,24.3
2017-10-01T12:44:03.885Z,24.4
2017-10-01T12:45:05.683Z,24.4
2017-10-01T12:46:07.457Z,24.4
2017-10-01T12:47:09.584Z,24.4
2017-10-01T12:48:11.378Z,24.4
2017-10-01T12:49:12.843Z,24.3
2017-10-01T12:50:13.974Z,24.4
2017-10-01T12:51:15.767Z,24.4
2017-10-01T12:52:17.227Z,24.4
2017-10-01T12:53:19.001Z,24.5
2017-10-01T12:54:21.127Z,24.4
2017-10-01T12:55:22.588Z,24.4
2017-10-01T12:56:23.702Z,24.4
2017-10-01T12:57:25.140Z,24.4
2017-10-01T12:58:26.935Z,24.4
2017-10-01T12:59:29.061Z,24.4
2017-10-01T13:00:30.856Z,24.4
2017-10-01T13:01:32.330Z,24.4
2017-10-01T13:02:33.768Z,24.3
2017-10-01T13:03:35.563Z,24.4
2017-10-01T13:04:37.353Z,24.4
2017-10-01T13:05:38.455Z,24.4
2017-10-01T13:06:39.913Z,24.3
2017-10-01T13:07:41.710Z,24.4
2017-10-01T13:08:43.169Z,24.3
2017-10-01T13:09:44.296Z,24.4
2017-10-01T13:10:46.240Z,24.4
2017-10-01T13:11:48.032Z,24.4
2017-10-01T13:12:49.492Z,24.4
2017-10-01T13:13:50.950Z,24.4
2017-10-01T13:14:53.086Z,24.4
2017-10-01T13:15:54.521Z,24.3
2017-10-01T13:16:56.315Z,24.4
2017-10-01T13:17:58.448Z,24.4
2017-10-01T13:19:00.220Z,24.4
2017-10-01T13:20:02.016Z,24.4
2017-10-01T13:21:04.141Z,24.4
2017-10-01T13:22:05.582Z,24.4
2017-10-01T13:23:06.348Z,24.5
2017-10-01T13:24:08.126Z,24.4
2017-10-01T13:25:09.972Z,24.5
2017-10-01T13:26:11.746Z,24.4
2017-10-01T13:27:13.546Z,24.4
2017-10-01T13:28:14.649Z,24.5
2017-10-01T13:29:16.453Z,24.4
2017-10-01T13:30:17.908Z,24.5
2017-10-01T13:31:19.702Z,24.5
2017-10-01T13:32:20.807Z,24.4
2017-10-01T13:33:22.934Z,24.5
2017-10-01T13:34:25.067Z,24.4
2017-10-01T13:35:26.863Z,24.5
2017-10-01T13:36:28.991Z,24.5
2017-10-01T13:37:30.433Z,24.5
2017-10-01T13:38:32.564Z,24.5
2017-10-01T13:39:34.336Z,24.5
2017-10-01T13:40:35.797Z,24.5
2017-10-01T13:41:37.254Z,24.4
2017-10-01T13:42:38.693Z,24.4
2017-10-01T13:43:40.486Z,24.4
2017-10-01T13:44:42.616Z,24.5
2017-10-01T13:45:44.747Z,24.3